Aihui, Heilongjiang

11:49 PM CST on July 24, 2016 (GMT +0800)
Ignatyevo | | Change Station

Elev 636 ft 50.43 °N, 127.41 °E | Updated 49 minutes ago

Partly Cloudy
Partly Cloudy
64 °F
Feels Like 64 °F
N
4
Wind Variable Wind from WNW

Today
High -- | Low -- °F
--% Chance of Precip.
Yesterday
High -- | Low -- °F
Precip. -- in
Pressure 29.65 in
Visibility 6.2 miles
Clouds Few 3300 ft
Dew Point 61 °F
Humidity 88%
Rainfall 0.00 in
Snow Depth Not available.
3:47 AM 7:24 PM
Waning Gibbous, 75% visible
METAR UHBB 241500Z 30002MPS 9999 FEW033 18/16 Q1004 R36/290050 NOSIG RMK QFE735/0981
Pressure 29.65 in
Visibility 6.2 miles
Clouds Few 3300 ft
Dew Point 61 °F
Humidity 88%
Rainfall 0.00 in
Snow Depth Not available.
3:47 AM 7:24 PM
Waning Gibbous, 75% visible
METAR UHBB 241500Z 30002MPS 9999 FEW033 18/16 Q1004 R36/290050 NOSIG RMK QFE735/0981

10-Day Weather Forecast

No radar image for this location.
×

Almanac

Astronomy

Jul. 24, 2016 Rise Set
Actual Time
Civil Twilight
Nautical Twilight
Astronomical Twilight
Moon
Length of Visible Light
Length of Day
Tomorrow will be .
, % of the Moon is Illuminated

Today's Extremes

Country Highs Country Lows

Community

WunderPhotos

Upload Photos

1,927,092 photos uploaded!

WunderBlog® & News

Nearby

Air Quality

  Air Quality AQ Index Pollutant
Not available.

Snow Depth

Station Depth Elevation

Earthquake Activity

City Distance Mag. Time & Date
Minimum magnitude displayed is 2.5.

Coastal Water Temperatures

Place Temperature

Stations

Nearby Weather Stations

Station Location Temp. Windchill Dew Point Humidity Wind Precip. Elev Updated Type